Time;durP1;ratioP1;P1;durP2;ratioP2;P2;SDS_P1;SDS_P2;PMS_P1;PMS_P2;Temp;Humidity;BMP_temperature;BMP_pressure;BME280_temperature;BME280_humidity;BME280_pressure;Samples;Min_cycle;Max_cycle;Signal;HPM_P1;HPM_P2
2023/07/28 00:00:31;;;;;;;29.25;14.30;;;;;;;;;;5041324;28;20500;-83
2023/07/28 00:02:57;;;;;;;32.78;14.98;;;;;;;;;;5055927;28;20112;-82
2023/07/28 00:05:23;;;;;;;46.20;17.38;;;;;;;;;;5059666;28;20566;-81
2023/07/28 00:07:49;;;;;;;36.08;16.58;;;;;;;;;;5049952;28;20044;-83
2023/07/28 00:10:15;;;;;;;26.73;14.50;;;;;;;;;;5061831;28;20087;-82
2023/07/28 00:12:41;;;;;;;37.47;17.02;;;;;;;;;;5060298;28;20614;-83
2023/07/28 00:15:07;;;;;;;34.30;15.07;;;;;;;;;;5060745;28;20131;-81
2023/07/28 00:17:33;;;;;;;34.45;15.20;;;;;;;;;;5060805;28;20051;-83
2023/07/28 00:20:00;;;;;;;35.33;15.95;;;;;;;;;;5057202;28;20120;-85
2023/07/28 00:22:26;;;;;;;38.28;17.73;;;;;;;;;;5061381;28;20055;-81
2023/07/28 00:24:52;;;;;;;34.08;18.35;;;;;;;;;;5061310;28;20053;-85
2023/07/28 00:27:18;;;;;;;36.17;18.02;;;;;;;;;;5061383;28;20048;-80
2023/07/28 00:29:44;;;;;;;31.83;16.05;;;;;;;;;;5059149;28;20040;-86
2023/07/28 00:32:10;;;;;;;41.53;18.42;;;;;;;;;;5061056;28;20056;-87
2023/07/28 00:34:36;;;;;;;34.40;17.88;;;;;;;;;;5064554;28;20091;-80
2023/07/28 00:37:03;;;;;;;29.58;16.25;;;;;;;;;;5065008;28;20058;-82
2023/07/28 00:39:29;;;;;;;29.98;16.58;;;;;;;;;;5064350;28;20044;-83
2023/07/28 00:41:55;;;;;;;40.92;18.48;;;;;;;;;;5046678;28;20083;-85
2023/07/28 00:44:21;;;;;;;36.35;17.35;;;;;;;;;;5062603;28;20080;-83
2023/07/28 00:46:47;;;;;;;34.13;19.20;;;;;;;;;;5063316;28;20041;-86
2023/07/28 00:49:13;;;;;;;35.22;19.02;;;;;;;;;;5058724;28;20154;-84
2023/07/28 00:51:40;;;;;;;38.00;19.75;;;17.30;99.90;;;;;;5059551;28;20044;-84
2023/07/28 00:54:07;;;;;;;43.55;20.10;;;;;;;;;;5064463;28;20079;-84
2023/07/28 00:56:33;;;;;;;32.28;19.05;;;;;;;;;;5063969;28;20044;-88
2023/07/28 00:58:59;;;;;;;35.42;19.63;;;;;;;;;;5047189;28;20052;-80
2023/07/28 01:01:25;;;;;;;37.90;19.77;;;;;;;;;;5064728;28;20055;-86
2023/07/28 01:03:51;;;;;;;33.63;19.00;;;;;;;;;;5066141;28;20504;-87
2023/07/28 01:06:29;;;;;;;36.53;18.23;;;17.30;99.90;;;;;;5065001;28;20050;-81
2023/07/28 01:09:11;;;;;;;42.95;20.75;;;17.30;99.90;;;;;;5048850;28;20098;-83
2023/07/28 01:11:37;;;;;;;44.38;19.08;;;;;;;;;;5065149;28;20050;-81
2023/07/28 01:14:03;;;;;;;34.17;18.38;;;;;;;;;;5065927;28;20449;-84
2023/07/28 01:16:30;;;;;;;45.60;18.75;;;;;;;;;;5069478;28;20055;-88
2023/07/28 01:18:56;;;;;;;44.05;19.00;;;;;;;;;;5072587;28;20109;-91
2023/07/28 01:21:27;;;;;;;44.38;21.92;;;21.50;99.90;;;;;;5071231;28;20047;-88
2023/07/28 01:24:41;;;;;;;43.08;19.33;;;17.30;99.90;;;;;;5070058;28;20054;-87
2023/07/28 01:27:07;;;;;;;39.15;18.20;;;;;;;;;;5009470;28;20067;-86
2023/07/28 01:29:34;;;;;;;45.13;20.58;;;;;;;;;;5054518;28;20063;-82
2023/07/28 01:32:00;;;;;;;43.90;19.48;;;17.60;99.90;;;;;;5070866;28;20086;-88
2023/07/28 01:34:26;;;;;;;41.20;17.75;;;;;;;;;;5068346;28;20513;-87
2023/07/28 01:36:52;;;;;;;40.38;18.50;;;;;;;;;;5069801;28;20330;-87
2023/07/28 01:39:18;;;;;;;34.33;17.98;;;;;;;;;;5051972;28;20701;-80
2023/07/28 01:41:44;;;;;;;36.33;17.50;;;;;;;;;;5071847;28;20071;-86
2023/07/28 01:44:11;;;;;;;32.55;17.63;;;;;;;;;;5069742;28;20451;-80
2023/07/28 01:46:37;;;;;;;35.42;16.95;;;;;;;;;;5051989;28;20048;-84
2023/07/28 01:49:03;;;;;;;41.42;18.27;;;;;;;;;;5057185;28;20069;-89
2023/07/28 01:51:29;;;;;;;39.63;19.13;;;;;;;;;;5060737;28;20052;-89
2023/07/28 01:53:55;;;;;;;35.95;17.15;;;;;;;;;;5060129;28;20055;-82
2023/07/28 01:56:22;;;;;;;39.80;17.65;;;;;;;;;;5074207;28;20461;-86
2023/07/28 01:58:48;;;;;;;37.03;17.92;;;;;;;;;;5054910;28;20047;-84
2023/07/28 02:01:14;;;;;;;32.80;16.10;;;;;;;;;;5055476;28;20109;-82
2023/07/28 02:03:40;;;;;;;39.75;17.15;;;;;;;;;;5066328;28;20760;-86
2023/07/28 02:06:06;;;;;;;36.00;17.08;;;;;;;;;;5052689;28;20556;-86
2023/07/28 02:08:32;;;;;;;33.25;16.40;;;;;;;;;;5065853;28;20055;-83
2023/07/28 02:10:58;;;;;;;32.88;15.52;;;;;;;;;;5067533;28;20040;-81
2023/07/28 02:13:24;;;;;;;37.17;15.35;;;;;;;;;;5067729;28;20044;-85
2023/07/28 02:15:50;;;;;;;34.40;16.05;;;;;;;;;;5047946;28;20117;-83
2023/07/28 02:18:17;;;;;;;31.80;14.55;;;;;;;;;;5067136;28;20068;-81
2023/07/28 02:20:43;;;;;;;31.35;15.77;;;;;;;;;;5066654;28;20048;-85
2023/07/28 02:23:09;;;;;;;47.20;18.35;;;;;;;;;;5066782;28;20079;-85
2023/07/28 02:25:35;;;;;;;35.72;16.25;;;;;;;;;;5065969;28;20044;-86
2023/07/28 02:28:01;;;;;;;36.15;16.92;;;;;;;;;;5067748;28;20130;-85
2023/07/28 02:30:27;;;;;;;39.53;17.83;;;;;;;;;;5067124;28;20044;-86
2023/07/28 02:32:53;;;;;;;47.97;18.00;;;;;;;;;;5067475;28;20048;-84
2023/07/28 02:35:19;;;;;;;41.10;18.48;;;;;;;;;;5047899;28;20088;-84
2023/07/28 02:37:45;;;;;;;35.00;17.63;;;;;;;;;;5065988;28;20496;-84
2023/07/28 02:40:12;;;;;;;34.15;15.32;;;17.70;99.90;;;;;;5049097;28;20051;-83
2023/07/28 02:42:39;;;;;;;28.38;15.73;;;;;;;;;;5066728;28;20105;-84
2023/07/28 02:45:05;;;;;;;29.88;14.63;;;;;;;;;;5067028;28;20040;-89
2023/07/28 02:47:31;;;;;;;30.00;14.35;;;;;;;;;;5064109;28;20076;-89
2023/07/28 02:49:57;;;;;;;34.72;16.13;;;;;;;;;;5068679;28;20139;-83
2023/07/28 02:52:24;;;;;;;39.90;17.23;;;;;;;;;;5047133;28;20131;-85
2023/07/28 02:54:50;;;;;;;40.10;17.45;;;;;;;;;;5050532;28;20047;-88
2023/07/28 02:57:16;;;;;;;39.58;17.80;;;;;;;;;;5066749;28;20054;-85
2023/07/28 02:59:42;;;;;;;33.58;17.38;;;;;;;;;;5065821;28;20079;-82
2023/07/28 03:02:08;;;;;;;42.92;18.65;;;;;;;;;;5067080;28;20052;-85
2023/07/28 03:04:34;;;;;;;40.28;17.30;;;;;;;;;;5049067;28;20063;-84
2023/07/28 03:07:00;;;;;;;43.03;19.17;;;;;;;;;;5049428;28;20052;-82
2023/07/28 03:09:26;;;;;;;34.33;17.20;;;;;;;;;;5049941;28;20059;-86
2023/07/28 03:11:53;;;;;;;42.30;19.23;;;;;;;;;;5066322;28;20056;-83
2023/07/28 03:14:19;;;;;;;50.22;20.40;;;;;;;;;;5066564;28;20059;-84
2023/07/28 03:16:45;;;;;;;47.97;20.33;;;;;;;;;;5048151;28;20047;-87
2023/07/28 03:19:11;;;;;;;45.83;19.35;;;;;;;;;;5066187;28;20044;-88
2023/07/28 03:21:37;;;;;;;29.52;17.85;;;;;;;;;;5061214;28;20184;-85
2023/07/28 03:24:03;;;;;;;41.00;18.65;;;;;;;;;;5066278;28;20419;-85
2023/07/28 03:26:30;;;;;;;40.05;19.63;;;;;;;;;;5049885;28;20075;-86
2023/07/28 03:28:56;;;;;;;34.35;18.58;;;;;;;;;;5050716;28;20056;-85
2023/07/28 03:31:22;;;;;;;29.65;16.55;;;;;;;;;;5051788;28;20052;-87
2023/07/28 03:33:48;;;;;;;32.70;18.33;;;;;;;;;;5068475;28;20048;-84
2023/07/28 03:36:15;;;;;;;44.92;20.17;;;;;;;;;;5067417;28;20052;-84
2023/07/28 03:38:41;;;;;;;36.75;18.05;;;;;;;;;;5063975;28;20128;-84
2023/07/28 03:41:07;;;;;;;40.10;18.58;;;;;;;;;;5065915;28;20142;-88
2023/07/28 03:43:33;;;;;;;40.58;18.30;;;;;;;;;;5067196;28;20051;-87
2023/07/28 03:45:59;;;;;;;39.70;19.77;;;;;;;;;;5066183;28;20052;-83
2023/07/28 03:48:25;;;;;;;33.00;17.63;;;;;;;;;;5066730;28;20051;-82
2023/07/28 03:50:52;;;;;;;35.42;17.67;;;;;;;;;;5050656;28;20519;-85
2023/07/28 03:53:18;;;;;;;38.75;19.17;;;;;;;;;;5051576;28;20401;-84
2023/07/28 03:55:44;;;;;;;37.88;17.98;;;;;;;;;;5067514;28;20100;-86
2023/07/28 03:58:10;;;;;;;36.25;17.73;;;;;;;;;;5067747;28;20051;-82
2023/07/28 04:00:36;;;;;;;40.55;18.13;;;;;;;;;;5051837;28;20053;-84
2023/07/28 04:03:02;;;;;;;38.70;17.05;;;;;;;;;;5070189;28;20077;-85
2023/07/28 04:05:28;;;;;;;36.10;17.60;;;;;;;;;;5070756;28;20052;-82
2023/07/28 04:07:55;;;;;;;28.17;16.55;;;;;;;;;;5071387;28;20306;-89
2023/07/28 04:10:21;;;;;;;33.80;16.80;;;;;;;;;;5057720;28;20485;-82
2023/07/28 04:12:47;;;;;;;30.35;15.68;;;;;;;;;;5070998;28;20048;-88
2023/07/28 04:15:13;;;;;;;28.05;15.98;;;;;;;;;;5064461;28;20127;-88
2023/07/28 04:17:39;;;;;;;32.38;16.60;;;;;;;;;;5068593;28;20107;-86
2023/07/28 04:20:06;;;;;;;31.95;19.60;;;17.80;99.90;;;;;;5068397;28;20048;-84
2023/07/28 04:22:32;;;;;;;32.95;19.48;;;;;;;;;;5063507;28;20059;-86
2023/07/28 04:24:58;;;;;;;36.10;19.33;;;;;;;;;;5051978;28;20119;-86
2023/07/28 04:27:24;;;;;;;35.50;19.52;;;;;;;;;;5067352;28;20039;-83
2023/07/28 04:29:50;;;;;;;34.13;19.05;;;;;;;;;;5066531;28;20249;-85
2023/07/28 04:32:16;;;;;;;35.97;19.38;;;;;;;;;;5067091;28;20036;-83
2023/07/28 04:34:43;;;;;;;41.63;19.77;;;;;;;;;;5068333;28;20110;-85
2023/07/28 04:37:09;;;;;;;35.05;18.77;;;;;;;;;;5067267;28;20542;-83
2023/07/28 04:39:35;;;;;;;33.22;19.92;;;;;;;;;;5066222;28;20104;-88
2023/07/28 04:42:01;;;;;;;39.83;20.48;;;;;;;;;;5059205;28;20048;-87
2023/07/28 04:44:27;;;;;;;38.25;20.13;;;;;;;;;;5063840;28;20044;-81
2023/07/28 04:46:53;;;;;;;42.33;20.48;;;;;;;;;;5066214;28;20044;-85
2023/07/28 04:49:21;;;;;;;36.58;20.23;;;;;;;;;;5067720;28;20091;-85
2023/07/28 04:51:47;;;;;;;31.73;16.88;;;;;;;;;;5067328;28;20097;-84
2023/07/28 04:54:13;;;;;;;33.30;19.88;;;;;;;;;;5066812;28;20047;-86
2023/07/28 04:56:39;;;;;;;32.22;19.48;;;;;;;;;;5065888;28;21013;-86
2023/07/28 04:59:06;;;;;;;37.30;19.90;;;;;;;;;;5062534;28;20048;-84
2023/07/28 05:01:33;;;;;;;35.42;20.98;;;17.60;99.90;;;;;;5066105;28;20124;-84
2023/07/28 05:03:59;;;;;;;35.50;19.92;;;;;;;;;;5064465;28;20902;-87
2023/07/28 05:06:25;;;;;;;33.38;19.00;;;;;;;;;;5067907;28;20090;-86
2023/07/28 05:08:51;;;;;;;38.15;20.73;;;;;;;;;;5049741;28;20048;-90
2023/07/28 05:11:17;;;;;;;33.42;19.17;;;;;;;;;;5063937;28;20056;-82
2023/07/28 05:13:44;;;;;;;37.45;19.42;;;;;;;;;;5063876;28;20052;-82
2023/07/28 05:16:10;;;;;;;33.03;18.80;;;;;;;;;;5047021;28;20105;-81
2023/07/28 05:18:37;;;;;;;35.97;19.05;;;;;;;;;;5056679;28;20596;-83
2023/07/28 05:21:03;;;;;;;31.67;18.13;;;;;;;;;;5064575;28;20070;-82
2023/07/28 05:23:29;;;;;;;38.83;20.27;;;;;;;;;;5059879;28;20076;-85
2023/07/28 05:25:55;;;;;;;27.77;17.88;;;;;;;;;;5064338;28;20100;-86
2023/07/28 05:28:21;;;;;;;28.65;17.45;;;;;;;;;;5063297;28;20033;-85
2023/07/28 05:30:47;;;;;;;25.55;17.58;;;;;;;;;;5061570;28;20044;-86
2023/07/28 05:33:13;;;;;;;27.67;16.88;;;;;;;;;;5063806;28;20047;-84
2023/07/28 05:35:39;;;;;;;32.83;17.35;;;;;;;;;;5063770;28;20613;-88
2023/07/28 05:38:06;;;;;;;28.27;16.92;;;;;;;;;;5064240;28;20048;-87
2023/07/28 05:40:32;;;;;;;32.15;18.08;;;;;;;;;;5046591;28;20052;-83
2023/07/28 05:42:58;;;;;;;27.33;16.20;;;;;;;;;;5063428;28;20045;-86
2023/07/28 05:45:24;;;;;;;29.40;16.08;;;;;;;;;;5057604;28;20059;-81
2023/07/28 05:47:50;;;;;;;32.80;16.67;;;;;;;;;;5063442;28;20879;-85
2023/07/28 05:50:16;;;;;;;29.50;17.73;;;;;;;;;;5063861;28;20059;-85
2023/07/28 05:52:42;;;;;;;30.85;16.92;;;;;;;;;;5063398;28;20062;-84
2023/07/28 05:55:08;;;;;;;28.25;17.23;;;18.50;99.90;;;;;;5063755;28;20048;-86
2023/07/28 05:57:34;;;;;;;21.95;13.80;;;;;;;;;;5063996;28;20054;-82
2023/07/28 06:00:00;;;;;;;25.90;15.52;;;;;;;;;;5061469;28;20062;-83
2023/07/28 06:02:27;;;;;;;20.80;14.65;;;;;;;;;;5065553;28;20044;-83
2023/07/28 06:04:53;;;;;;;23.65;13.88;;;18.40;99.90;;;;;;5066289;28;20044;-84
2023/07/28 06:07:19;;;;;;;23.20;15.13;;;;;;;;;;5065623;28;20094;-83
2023/07/28 06:09:45;;;;;;;20.02;13.65;;;;;;;;;;5066426;28;20058;-82
2023/07/28 06:12:13;;;;;;;25.67;14.77;;;;;;;;;;5064410;28;20048;-83
2023/07/28 06:14:39;;;;;;;22.63;13.70;;;;;;;;;;5065329;28;20067;-85
2023/07/28 06:17:05;;;;;;;19.42;13.80;;;;;;;;;;5049589;28;20044;-83
2023/07/28 06:19:32;;;;;;;24.05;14.27;;;;;;;;;;5065346;28;20540;-82
2023/07/28 06:21:58;;;;;;;20.75;13.38;;;;;;;;;;5065942;28;20048;-85
2023/07/28 06:24:24;;;;;;;19.60;13.05;;;;;;;;;;5065748;28;20361;-83
2023/07/28 06:26:50;;;;;;;16.13;11.48;;;;;;;;;;5065661;28;20051;-82
2023/07/28 06:29:16;;;;;;;16.60;12.98;;;;;;;;;;5062522;28;20044;-83
2023/07/28 06:31:42;;;;;;;15.50;11.20;;;;;;;;;;5067289;28;20048;-82
2023/07/28 06:34:08;;;;;;;20.08;10.82;;;;;;;;;;5050811;28;20080;-83
2023/07/28 06:36:34;;;;;;;18.35;11.75;;;;;;;;;;5063147;28;20052;-82
2023/07/28 06:39:01;;;;;;;19.10;11.43;;;;;;;;;;5064586;28;20049;-82
2023/07/28 06:41:27;;;;;;;16.30;10.40;;;;;;;;;;5046907;28;20113;-83
2023/07/28 06:43:53;;;;;;;16.85;11.25;;;;;;;;;;5064233;28;20049;-81
2023/07/28 06:46:19;;;;;;;15.77;8.95;;;;;;;;;;5062691;28;20088;-80
2023/07/28 06:48:45;;;;;;;12.38;7.97;;;;;;;;;;5053337;28;20049;-81
2023/07/28 06:51:11;;;;;;;14.48;8.25;;;;;;;;;;5060716;28;20072;-80
2023/07/28 06:53:37;;;;;;;16.13;8.20;;;;;;;;;;5048438;28;20076;-81
2023/07/28 06:56:04;;;;;;;14.90;6.82;;;;;;;;;;5053170;28;21052;-83
2023/07/28 06:58:30;;;;;;;13.15;7.18;;;;;;;;;;5061534;28;20090;-83
2023/07/28 07:00:56;;;;;;;14.68;5.20;;;;;;;;;;5052416;28;20059;-77
2023/07/28 07:03:23;;;;;;;9.70;4.97;;;;;;;;;;5055491;28;20056;-81
2023/07/28 07:05:50;;;;;;;9.48;4.53;;;;;;;;;;5042784;28;20106;-79
2023/07/28 07:08:16;;;;;;;8.35;3.50;;;;;;;;;;5055027;28;20051;-80
2023/07/28 07:10:50;;;;;;;10.45;4.43;;;24.60;99.90;;;;;;5056177;28;20133;-79
2023/07/28 07:13:17;;;;;;;9.43;3.38;;;;;;;;;;5051934;28;20612;-81
2023/07/28 07:15:43;;;;;;;7.20;4.60;;;;;;;;;;5040914;28;20047;-79
2023/07/28 07:18:09;;;;;;;8.95;3.22;;;;;;;;;;5055888;28;20466;-78
2023/07/28 07:20:35;;;;;;;7.30;3.40;;;;;;;;;;5059955;28;20045;-74
2023/07/28 07:23:02;;;;;;;7.70;3.03;;;;;;;;;;5060569;28;20052;-83
2023/07/28 07:25:28;;;;;;;6.53;2.75;;;;;;;;;;5059075;28;20063;-81
2023/07/28 07:27:54;;;;;;;5.90;2.72;;;;;;;;;;5058933;28;20048;-80
2023/07/28 07:30:20;;;;;;;8.40;2.65;;;;;;;;;;5059723;28;20807;-83
2023/07/28 07:32:46;;;;;;;5.88;2.60;;;;;;;;;;5049895;28;20048;-81
2023/07/28 07:35:12;;;;;;;7.38;2.90;;;;;;;;;;5055379;28;20070;-80
2023/07/28 07:37:40;;;;;;;5.60;2.55;;;22.50;99.90;;;;;;5042504;28;20382;-82
2023/07/28 07:40:07;;;;;;;6.45;2.80;;;;;;;;;;5055753;28;20056;-83
2023/07/28 07:42:49;;;;;;;6.30;2.75;;;22.20;99.90;;;;;;5040332;28;20089;-82
2023/07/28 07:45:15;;;;;;;8.27;2.83;;;;;;;;;;5057548;28;20440;-79
2023/07/28 07:47:42;;;;;;;7.40;2.60;;;22.30;99.90;;;;;;5058563;28;20143;-80
2023/07/28 07:50:10;;;;;;;5.93;1.80;;;22.30;99.90;;;;;;5041211;28;20156;-80
2023/07/28 07:52:36;;;;;;;5.60;1.83;;;;;;;;;;5040941;28;20522;-80
2023/07/28 07:55:03;;;;;;;6.05;1.92;;;23.50;99.90;;;;;;5073276;28;20485;-79
2023/07/28 07:57:29;;;;;;;3.67;2.00;;;;;;;;;;5054757;28;20055;-81
2023/07/28 07:59:55;;;;;;;5.50;1.42;;;;;;;;;;5055436;28;20067;-78
2023/07/28 08:02:21;;;;;;;3.38;1.33;;;;;;;;;;5058057;28;20052;-81
2023/07/28 08:04:48;;;;;;;3.67;1.88;;;;;;;;;;5056108;28;20067;-80
2023/07/28 08:07:16;;;;;;;6.93;1.17;;;;;;;;;;5056748;28;20759;-80
2023/07/28 08:09:42;;;;;;;3.50;0.70;;;;;;;;;;5055530;28;20074;-80
2023/07/28 08:12:09;;;;;;;4.97;0.88;;;;;;;;;;5058516;28;20048;-80
2023/07/28 08:14:35;;;;;;;2.47;0.93;;;;;;;;;;5047816;28;20785;-82
2023/07/28 08:17:01;;;;;;;2.63;0.95;;;;;;;;;;5059049;28;20072;-82
2023/07/28 08:19:27;;;;;;;6.47;1.05;;;;;;;;;;5042421;28;20490;-83
2023/07/28 08:21:53;;;;;;;2.65;0.70;;;;;;;;;;5052381;28;20059;-82
2023/07/28 08:24:20;;;;;;;7.28;1.73;;;28.50;99.90;;;;;;5055217;28;20106;-77
2023/07/28 08:26:46;;;;;;;3.47;1.08;;;;;;;;;;5054886;28;20525;-82
2023/07/28 08:29:12;;;;;;;3.97;0.77;;;;;;;;;;5058204;28;20106;-83
2023/07/28 08:31:38;;;;;;;3.83;0.80;;;;;;;;;;5058676;28;20052;-84
2023/07/28 08:34:04;;;;;;;6.10;0.98;;;26.80;99.90;;;;;;5057578;28;20613;-82
2023/07/28 08:36:30;;;;;;;4.50;1.10;;;;;;;;;;5059435;28;20121;-84
2023/07/28 08:38:56;;;;;;;5.35;1.17;;;;;;;;;;5056889;28;20079;-81
2023/07/28 08:41:23;;;;;;;3.88;1.40;;;;;;;;;;5055043;28;20053;-83
2023/07/28 08:43:50;;;;;;;4.05;1.38;;;;;;;;;;5057115;28;20460;-84
2023/07/28 08:46:17;;;;;;;2.13;0.82;;;;;;;;;;5057757;28;20098;-82
2023/07/28 08:48:44;;;;;;;2.08;0.90;;;;;;;;;;5057522;28;20048;-81
2023/07/28 08:51:11;;;;;;;2.45;0.98;;;26.90;99.70;;;;;;5052321;28;20054;-80
2023/07/28 08:53:38;;;;;;;2.28;1.17;;;;;;;;;;5051153;28;20134;-80
2023/07/28 08:56:04;;;;;;;3.33;1.15;;;25.70;99.90;;;;;;5044652;28;20056;-80
2023/07/28 08:58:30;;;;;;;2.60;0.98;;;25.90;99.90;;;;;;5058008;28;20067;-84
2023/07/28 09:01:00;;;;;;;5.18;2.10;;;;;;;;;;5050937;28;20052;-80
2023/07/28 09:03:27;;;;;;;3.47;0.95;;;25.70;99.90;;;;;;5041653;28;20056;-78
2023/07/28 09:06:02;;;;;;;2.63;1.15;;;25.70;99.90;;;;;;5055470;28;20677;-76
2023/07/28 09:08:28;;;;;;;3.25;1.33;;;;;;;;;;5059458;28;20052;-79
2023/07/28 09:10:54;;;;;;;3.25;0.90;;;26.80;99.90;;;;;;5052974;28;20063;-77
2023/07/28 09:13:20;;;;;;;3.63;1.38;;;;;;;;;;5057947;28;20048;-78
2023/07/28 09:15:47;;;;;;;3.00;1.10;;;27.70;99.30;;;;;;5054054;28;20105;-77
2023/07/28 09:18:17;;;;;;;2.08;0.93;;;27.80;98.80;;;;;;5054437;28;20056;-79
2023/07/28 09:20:43;;;;;;;3.92;1.55;;;;;;;;;;5058721;28;20051;-79
2023/07/28 09:23:10;;;;;;;5.40;1.10;;;27.00;98.40;;;;;;5058602;28;20561;-76
2023/07/28 09:25:37;;;;;;;1.63;0.60;;;26.50;99.00;;;;;;5033086;28;20091;-79
2023/07/28 09:28:04;;;;;;;4.90;0.98;;;26.20;99.40;;;;;;5055980;28;20049;-79
2023/07/28 09:30:49;;;;;;;4.75;0.60;;;26.60;99.90;;;;;;5057582;28;20048;-81
2023/07/28 09:33:33;;;;;;;3.58;0.80;;;26.60;99.10;;;;;;5057460;28;20044;-77
2023/07/28 09:36:15;;;;;;;4.78;1.08;;;26.60;99.50;;;;;;5061564;28;20068;-82
2023/07/28 09:38:42;;;;;;;3.88;1.15;;;;;;;;;;5056728;28;20060;-82
2023/07/28 09:41:11;;;;;;;2.70;1.00;;;27.10;98.70;;;;;;5061090;28;20048;-81
2023/07/28 09:43:38;;;;;;;4.60;1.20;;;27.00;99.90;;;;;;5060750;28;20844;-78
2023/07/28 09:46:06;;;;;;;3.00;0.85;;;26.80;99.30;;;;;;5061254;28;20049;-81
2023/07/28 09:48:33;;;;;;;3.25;1.10;;;27.00;99.90;;;;;;5058503;28;20060;-78
2023/07/28 09:51:05;;;;;;;5.13;1.02;;;26.90;99.30;;;;;;5055597;28;20095;-76
2023/07/28 09:53:35;;;;;;;2.65;1.00;;;26.20;99.90;;;;;;5054312;28;20048;-79
2023/07/28 09:56:02;;;;;;;3.17;1.35;;;;;;;;;;5044561;28;20559;-76
2023/07/28 09:58:33;;;;;;;3.65;1.45;;;25.30;99.60;;;;;;5045101;28;20112;-80
2023/07/28 10:01:00;;;;;;;4.95;1.10;;;;;;;;;;5058669;28;20059;-80
2023/07/28 10:03:26;;;;;;;4.68;1.85;;;;;;;;;;5061104;28;20413;-79
2023/07/28 10:05:52;;;;;;;2.60;1.63;;;23.80;99.90;;;;;;5055560;28;20588;-81
2023/07/28 10:08:19;;;;;;;3.05;1.85;;;24.20;99.90;;;;;;5044976;28;20182;-79
2023/07/28 10:10:46;;;;;;;5.18;1.35;;;25.50;99.90;;;;;;5053939;28;20095;-81
2023/07/28 10:13:22;;;;;;;4.32;2.08;;;24.60;99.90;;;;;;5061270;28;20083;-76
2023/07/28 10:15:48;;;;;;;3.75;1.48;;;24.40;99.90;;;;;;5060615;28;20705;-79
2023/07/28 10:18:14;;;;;;;5.82;1.23;;;;;;;;;;5061895;28;20106;-83
2023/07/28 10:20:43;;;;;;;4.10;1.83;;;23.90;99.90;;;;;;5058252;28;20049;-80
2023/07/28 10:23:13;;;;;;;3.72;1.40;;;23.90;99.90;;;;;;5045020;28;20060;-79
2023/07/28 10:25:40;;;;;;;4.13;1.40;;;24.20;99.90;;;;;;5060898;28;20052;-77
2023/07/28 10:28:24;;;;;;;2.17;1.30;;;24.20;99.90;;;;;;5060934;28;20048;-76
2023/07/28 10:30:54;;;;;;;4.20;2.17;;;24.00;99.90;;;;;;5057456;28;20141;-77
2023/07/28 10:33:34;;;;;;;2.63;1.50;;;23.80;99.90;;;;;;5044176;28;20482;-75
2023/07/28 10:36:16;;;;;;;4.70;1.60;;;23.50;99.90;;;;;;5043922;28;20936;-81
2023/07/28 10:38:43;;;;;;;2.80;1.48;;;;;;;;;;5042622;28;20056;-78
2023/07/28 10:41:14;;;;;;;6.07;2.28;;;23.50;99.90;;;;;;5060891;28;20056;-82
2023/07/28 10:43:41;;;;;;;3.50;1.50;;;23.40;99.90;;;;;;5040178;28;20052;-75
2023/07/28 10:46:09;;;;;;;2.40;1.80;;;23.20;99.90;;;;;;5054613;28;20052;-77
2023/07/28 10:48:37;;;;;;;4.53;1.73;;;23.40;99.90;;;;;;5055502;28;20151;-74
2023/07/28 10:51:03;;;;;;;2.00;1.02;;;24.00;99.90;;;;;;5043783;28;20562;-78
2023/07/28 10:53:29;;;;;;;4.07;0.95;;;;;;;;;;5042320;28;20056;-82
2023/07/28 10:55:56;;;;;;;6.88;1.50;;;;;;;;;;5054345;28;20592;-80
2023/07/28 10:58:22;;;;;;;6.43;1.23;;;;;;;;;;5058421;28;20060;-76
2023/07/28 11:00:51;;;;;;;3.05;0.93;;;24.40;99.90;;;;;;5059333;28;20049;-76
2023/07/28 11:03:18;;;;;;;2.75;1.50;;;;;;;;;;5055652;28;20126;-78
2023/07/28 11:05:44;;;;;;;2.25;1.55;;;;;;;;;;5041698;28;20107;-80
2023/07/28 11:08:10;;;;;;;5.53;1.95;;;24.70;99.90;;;;;;5060818;28;20049;-79
2023/07/28 11:10:36;;;;;;;4.00;1.30;;;;;;;;;;5048037;28;20053;-78
2023/07/28 11:13:05;;;;;;;3.70;1.70;;;25.20;99.90;;;;;;5056373;28;20045;-73
2023/07/28 11:15:33;;;;;;;3.53;1.30;;;24.90;99.90;;;;;;5041110;28;20048;-83
2023/07/28 11:17:59;;;;;;;3.05;1.55;;;;;;;;;;5054257;28;20509;-75
2023/07/28 11:20:30;;;;;;;2.53;0.95;;;24.80;99.90;;;;;;5052257;28;20071;-80
2023/07/28 11:22:58;;;;;;;6.18;1.55;;;24.70;99.90;;;;;;5052540;28;20759;-77
2023/07/28 11:25:25;;;;;;;2.03;1.00;;;24.90;99.90;;;;;;5057953;28;20056;-78
2023/07/28 11:27:52;;;;;;;3.05;0.80;;;;;;;;;;5060154;28;20056;-79
2023/07/28 11:30:19;;;;;;;3.20;1.20;;;24.70;99.90;;;;;;5059361;28;20624;-76
2023/07/28 11:32:46;;;;;;;2.28;1.02;;;24.70;99.90;;;;;;5054843;28;20048;-79
2023/07/28 11:35:15;;;;;;;3.25;0.90;;;24.80;99.90;;;;;;5043142;28;20052;-77
2023/07/28 11:37:46;;;;;;;2.15;1.10;;;24.70;99.90;;;;;;5046385;28;20052;-76
2023/07/28 11:40:16;;;;;;;3.53;1.08;;;24.60;99.90;;;;;;5062547;28;20080;-77
2023/07/28 11:42:48;;;;;;;3.33;1.30;;;24.60;99.90;;;;;;5062535;28;20126;-77
2023/07/28 11:45:16;;;;;;;2.97;1.58;;;24.50;99.90;;;;;;5059373;28;20052;-74
2023/07/28 11:48:15;;;;;;;3.03;1.10;;;24.50;99.90;;;;;;5056687;28;20052;-76
2023/07/28 11:50:41;;;;;;;1.80;1.15;;;24.40;99.90;;;;;;5027990;28;20445;-77
2023/07/28 11:53:09;;;;;;;2.17;1.33;;;24.10;99.90;;;;;;5062365;28;20225;-80
2023/07/28 11:55:39;;;;;;;3.20;1.75;;;24.40;99.90;;;;;;5062460;28;20569;-81
2023/07/28 11:58:08;;;;;;;4.30;1.67;;;24.40;99.90;;;;;;5061712;28;20052;-78
2023/07/28 12:00:36;;;;;;;3.08;1.55;;;24.40;99.90;;;;;;5058771;28;20056;-76
2023/07/28 12:03:12;;;;;;;3.15;1.60;;;24.40;99.90;;;;;;5060210;28;20585;-77
2023/07/28 12:05:58;;;;;;;2.70;1.35;;;24.40;99.90;;;;;;5057363;28;20592;-74
2023/07/28 12:08:34;;;;;;;3.63;1.70;;;24.40;99.90;;;;;;5061110;28;20052;-76
2023/07/28 12:11:00;;;;;;;2.90;1.67;;;;;;;;;;5061645;28;20880;-76
2023/07/28 12:13:27;;;;;;;2.45;1.00;;;;;;;;;;5062257;28;20130;-75
2023/07/28 12:15:53;;;;;;;3.42;1.48;;;;;;;;;;5061299;28;20044;-79
2023/07/28 12:18:19;;;;;;;2.78;1.90;;;;;;;;;;5062269;28;20051;-79
2023/07/28 12:20:51;;;;;;;6.97;2.00;;;24.40;99.90;;;;;;5059970;28;20762;-77
2023/07/28 12:23:18;;;;;;;3.47;2.08;;;;;;;;;;5058016;28;20138;-76
2023/07/28 12:25:44;;;;;;;3.75;1.80;;;24.70;99.90;;;;;;5045745;28;20051;-76
2023/07/28 12:28:11;;;;;;;2.80;1.40;;;25.10;99.90;;;;;;5061727;28;20051;-76
2023/07/28 12:30:37;;;;;;;4.28;2.35;;;25.40;99.90;;;;;;5058773;28;20055;-77
2023/07/28 12:33:04;;;;;;;2.70;1.95;;;25.40;99.90;;;;;;5061764;28;20130;-77
2023/07/28 12:35:32;;;;;;;3.22;1.70;;;25.50;99.90;;;;;;5061522;28;20067;-76
2023/07/28 12:38:03;;;;;;;4.65;1.75;;;25.40;99.90;;;;;;5061947;28;20055;-77
2023/07/28 12:40:29;;;;;;;3.45;2.10;;;;;;;;;;5061739;28;20044;-78
2023/07/28 12:42:56;;;;;;;5.05;2.30;;;25.20;99.90;;;;;;5061736;28;20048;-71
2023/07/28 12:45:22;;;;;;;6.35;2.65;;;;;;;;;;5053664;28;20747;-76
2023/07/28 12:47:48;;;;;;;4.72;2.38;;;;;;;;;;5058833;28;20151;-77
2023/07/28 12:50:15;;;;;;;6.20;3.25;;;;;;;;;;5076785;28;20051;-76
2023/07/28 12:52:41;;;;;;;4.43;2.60;;;;;;;;;;5061777;28;20079;-75
2023/07/28 12:55:07;;;;;;;7.00;3.38;;;24.70;99.90;;;;;;5061287;28;20497;-78
2023/07/28 12:57:33;;;;;;;5.00;2.55;;;;;;;;;;5060338;28;20075;-78
2023/07/28 13:00:00;;;;;;;5.75;3.15;;;;;;;;;;5061969;28;20105;-75
2023/07/28 13:02:26;;;;;;;4.93;2.75;;;;;;;;;;5059279;28;20080;-77
2023/07/28 13:04:52;;;;;;;7.10;3.42;;;;;;;;;;5060854;28;20047;-76
2023/07/28 13:07:18;;;;;;;7.13;3.00;;;;;;;;;;5061351;28;20079;-77
2023/07/28 13:09:45;;;;;;;6.13;4.55;;;24.50;99.90;;;;;;5065870;28;20087;-77
2023/07/28 13:12:11;;;;;;;7.25;4.18;;;24.10;99.90;;;;;;5065459;28;20063;-77
2023/07/28 13:14:37;;;;;;;4.39;3.79;;;;;;;;;;4713968;28;10001050;-77
2023/07/28 13:17:03;;;;;;;6.82;4.10;;;24.10;99.90;;;;;;5057272;28;20052;-78
2023/07/28 13:19:29;;;;;;;7.60;4.00;;;;;;;;;;5043071;28;20044;-80
2023/07/28 13:21:55;;;;;;;7.55;4.35;;;23.80;99.90;;;;;;5061603;28;20659;-78
2023/07/28 13:24:21;;;;;;;7.15;3.88;;;;;;;;;;5060717;28;20040;-76
2023/07/28 13:26:47;;;;;;;4.10;3.53;;;;;;;;;;5054256;28;20036;-77
2023/07/28 13:29:15;;;;;;;8.52;3.72;;;24.40;99.90;;;;;;5061971;28;20074;-78
2023/07/28 13:31:42;;;;;;;4.75;3.13;;;;;;;;;;5058912;28;20497;-76
2023/07/28 13:34:08;;;;;;;2.88;2.35;;;;;;;;;;5042074;28;20055;-77
2023/07/28 13:36:34;;;;;;;6.75;3.15;;;;;;;;;;5060775;28;20048;-79
2023/07/28 13:39:00;;;;;;;3.88;2.42;;;;;;;;;;5045948;28;20048;-72
2023/07/28 13:41:26;;;;;;;4.85;2.40;;;;;;;;;;5054152;28;20055;-76
2023/07/28 13:43:52;;;;;;;6.57;2.17;;;24.20;99.90;;;;;;5061004;28;20496;-78
2023/07/28 13:46:18;;;;;;;2.35;0.95;;;;;;;;;;5060367;28;20051;-76
2023/07/28 13:48:44;;;;;;;3.40;1.23;;;;;;;;;;5063896;28;20075;-77
2023/07/28 13:51:10;;;;;;;1.63;0.80;;;;;;;;;;5058463;28;20063;-77
2023/07/28 13:53:36;;;;;;;6.28;0.75;;;;;;;;;;5064029;28;20460;-78